createdAt,value
2023-01-28T00:03:17.695Z,-0.03
2023-01-28T00:10:36.022Z,0.51
2023-01-28T00:17:56.364Z,1.72
2023-01-28T00:25:14.943Z,1.72
2023-01-28T00:32:33.581Z,0.71
2023-01-28T00:39:53.245Z,0.37
2023-01-28T00:47:11.466Z,0.15
2023-01-28T00:54:30.244Z,0.10
2023-01-28T01:01:53.039Z,0.16
2023-01-28T01:09:15.554Z,-0.04
2023-01-28T01:16:36.450Z,0.04
2023-01-28T01:23:56.063Z,0.04
2023-01-28T01:31:16.035Z,-0.01
2023-01-28T01:38:34.352Z,-0.02
2023-01-28T01:45:56.609Z,0.04
2023-01-28T01:53:17.779Z,-0.19
2023-01-28T02:00:36.167Z,-0.26
2023-01-28T02:08:17.588Z,-0.36
2023-01-28T02:15:36.125Z,-0.32
2023-01-28T02:23:15.864Z,-0.28
2023-01-28T02:30:39.348Z,-0.40
2023-01-28T02:38:02.017Z,-0.43
2023-01-28T02:45:22.872Z,-0.38
2023-01-28T02:53:13.423Z,-0.54
2023-01-28T03:00:37.939Z,-0.37
2023-01-28T03:07:58.080Z,-0.44
2023-01-28T03:15:36.390Z,-0.39
2023-01-28T03:23:15.298Z,-0.58
2023-01-28T03:30:57.297Z,-0.62
2023-01-28T03:38:34.239Z,-0.66
2023-01-28T03:45:53.025Z,-0.53
2023-01-28T03:53:16.821Z,-0.66
2023-01-28T04:00:45.421Z,-0.61
2023-01-28T04:08:04.582Z,-0.66
2023-01-28T04:15:41.556Z,-0.73
2023-01-28T04:23:03.155Z,-0.68
2023-01-28T04:30:22.086Z,-0.67
2023-01-28T04:38:14.826Z,-0.67
2023-01-28T04:45:57.835Z,-0.69
2023-01-28T04:53:52.767Z,-0.76
2023-01-28T05:01:23.755Z,-0.75
2023-01-28T05:08:42.485Z,-0.76
2023-01-28T05:16:02.466Z,-0.72
2023-01-28T05:23:21.183Z,-0.70
2023-01-28T05:30:45.985Z,-0.82
2023-01-28T05:38:05.657Z,-0.98
2023-01-28T05:45:24.068Z,-0.91
2023-01-28T05:52:52.377Z,-0.96
2023-01-28T06:00:18.447Z,-0.88
2023-01-28T06:07:37.564Z,-0.87
2023-01-28T06:14:57.949Z,-0.94
2023-01-28T06:22:36.041Z,-0.84
2023-01-28T06:29:54.315Z,-0.93
2023-01-28T06:37:14.211Z,-0.92
2023-01-28T06:44:33.951Z,-0.93
2023-01-28T06:51:52.752Z,-1.06
2023-01-28T06:59:11.178Z,-1.07
2023-01-28T07:06:30.958Z,-0.94
2023-01-28T07:13:49.178Z,-1.06
2023-01-28T07:21:07.567Z,-1.04
2023-01-28T07:28:27.179Z,-1.04
2023-01-28T07:35:45.439Z,-1.06
2023-01-28T07:43:03.727Z,-0.99
2023-01-28T07:50:30.682Z,-1.04
2023-01-28T07:57:53.696Z,-1.05
2023-01-28T08:05:12.048Z,-1.11
2023-01-28T08:12:31.868Z,-1.12
2023-01-28T08:19:50.060Z,-1.03
2023-01-28T08:27:08.597Z,-1.03
2023-01-28T08:34:28.151Z,-0.96
2023-01-28T08:41:46.980Z,-0.96
2023-01-28T08:49:05.415Z,-1.03
2023-01-28T08:56:24.954Z,-0.97
2023-01-28T09:03:43.262Z,-0.91
2023-01-28T09:11:01.832Z,-1.01
2023-01-28T09:18:21.531Z,-1.03
2023-01-28T09:25:39.936Z,-0.94
2023-01-28T09:32:59.579Z,-0.79
2023-01-28T09:40:22.500Z,-0.76
2023-01-28T09:47:43.676Z,-0.85
2023-01-28T09:55:05.851Z,-0.77
2023-01-28T10:02:39.084Z,-0.98
2023-01-28T10:09:58.338Z,-0.87
2023-01-28T10:17:19.262Z,-0.56
2023-01-28T10:24:44.462Z,-0.71
2023-01-28T10:32:07.645Z,-0.80
2023-01-28T10:39:27.113Z,-0.72
2023-01-28T10:46:47.261Z,-0.73
2023-01-28T10:54:15.599Z,-0.83
2023-01-28T11:01:45.489Z,-0.66
2023-01-28T11:09:05.781Z,-0.87
2023-01-28T11:16:24.056Z,-0.97
2023-01-28T11:23:50.996Z,-0.86
2023-01-28T11:31:12.343Z,-0.72
2023-01-28T11:38:30.629Z,-0.79
2023-01-28T11:45:53.775Z,-0.88
2023-01-28T11:54:00.515Z,-1.05
2023-01-28T12:01:24.149Z,-0.97
2023-01-28T12:08:46.211Z,-0.87
2023-01-28T12:16:13.465Z,-0.92
2023-01-28T12:23:52.804Z,-0.81
2023-01-28T12:31:21.177Z,-1.06
2023-01-28T12:38:46.231Z,-0.99
2023-01-28T12:46:12.657Z,-0.94
2023-01-28T12:53:35.138Z,-1.17
2023-01-28T13:00:57.809Z,-1.18
2023-01-28T13:08:21.331Z,-1.15
2023-01-28T13:15:42.180Z,-1.14
2023-01-28T13:23:04.316Z,-1.29
2023-01-28T13:30:28.695Z,-1.23
2023-01-28T13:37:47.368Z,-1.31
2023-01-28T13:45:24.666Z,-1.27
2023-01-28T13:52:45.883Z,-1.28
2023-01-28T14:00:10.114Z,-1.31
2023-01-28T14:08:15.489Z,-1.29
2023-01-28T14:16:09.532Z,-1.30
2023-01-28T14:23:31.417Z,-1.27
2023-01-28T14:30:55.765Z,-1.31
2023-01-28T14:38:20.159Z,-1.33
2023-01-28T14:46:06.915Z,-1.47
2023-01-28T14:53:50.215Z,-1.41
2023-01-28T15:01:23.143Z,-1.45
2023-01-28T15:08:44.252Z,-1.48
2023-01-28T15:16:03.782Z,-1.59
2023-01-28T15:23:29.717Z,-1.67
2023-01-28T15:30:48.733Z,-1.67
2023-01-28T15:38:07.982Z,-1.75
2023-01-28T15:45:29.977Z,-1.71
2023-01-28T15:52:50.750Z,-1.75
2023-01-28T16:00:26.671Z,-1.69
2023-01-28T16:07:47.861Z,-1.72
2023-01-28T16:15:19.671Z,-1.74
2023-01-28T16:22:39.944Z,-1.85
2023-01-28T16:29:59.622Z,-1.87
2023-01-28T16:37:18.345Z,-1.88
2023-01-28T16:44:37.047Z,-2.07
2023-01-28T16:51:58.079Z,-2.01
2023-01-28T16:59:17.684Z,-1.87
2023-01-28T17:06:37.412Z,-2.02
2023-01-28T17:13:58.388Z,-2.01
2023-01-28T17:21:17.100Z,-2.06
2023-01-28T17:28:41.948Z,-1.94
2023-01-28T17:36:14.248Z,-2.18
2023-01-28T17:43:37.858Z,-2.20
2023-01-28T17:51:03.962Z,-2.29
2023-01-28T17:58:33.062Z,-1.56
2023-01-28T18:06:08.120Z,-1.96
2023-01-28T18:13:32.170Z,-2.19
2023-01-28T18:20:58.458Z,-2.17
2023-01-28T18:28:17.057Z,-2.24
2023-01-28T18:35:42.802Z,-2.13
2023-01-28T18:43:01.060Z,-2.03
2023-01-28T18:50:19.601Z,-2.03
2023-01-28T18:57:39.322Z,-1.94
2023-01-28T19:04:57.617Z,-2.00
2023-01-28T19:12:16.048Z,-2.00
2023-01-28T19:19:41.359Z,-1.92
2023-01-28T19:27:00.202Z,-2.01
2023-01-28T19:34:18.634Z,-1.93
2023-01-28T19:41:38.527Z,-1.95
2023-01-28T19:48:57.002Z,-2.00
2023-01-28T19:56:18.666Z,-2.02
2023-01-28T20:03:38.878Z,-1.95
2023-01-28T20:11:04.363Z,-1.91
2023-01-28T20:18:22.684Z,-1.81
2023-01-28T20:25:42.512Z,-1.86
2023-01-28T20:33:00.762Z,-1.87
2023-01-28T20:40:20.279Z,-1.92
2023-01-28T20:47:40.309Z,-1.92
2023-01-28T20:54:58.826Z,-1.96
2023-01-28T21:02:17.241Z,-2.06
2023-01-28T21:09:36.812Z,-2.02
2023-01-28T21:16:54.982Z,-1.84
2023-01-28T21:24:13.583Z,-1.87
2023-01-28T21:31:33.403Z,-1.90
2023-01-28T21:38:52.991Z,-1.95
2023-01-28T21:46:11.186Z,-1.92
2023-01-28T21:53:31.163Z,-1.79
2023-01-28T22:00:49.441Z,-1.79
2023-01-28T22:08:07.678Z,-1.83
2023-01-28T22:15:27.695Z,-1.95
2023-01-28T22:22:45.839Z,-1.98
2023-01-28T22:30:04.141Z,-1.88
2023-01-28T22:37:23.877Z,-1.91
2023-01-28T22:44:42.153Z,-1.97
2023-01-28T22:52:00.402Z,-1.97
2023-01-28T22:59:20.005Z,-1.99
2023-01-28T23:06:38.600Z,-1.89
2023-01-28T23:14:16.576Z,-1.81
2023-01-28T23:21:54.722Z,-1.87
2023-01-28T23:29:13.151Z,-1.95
2023-01-28T23:36:31.914Z,-1.95
2023-01-28T23:43:51.994Z,-2.00
2023-01-28T23:51:10.269Z,-2.25
2023-01-28T23:58:42.744Z,-2.53
